x

South Santa Rosa Is. Ca (46069) Wave Buoy

8:50 - Sat 23rd Jul 2016 All times are PDT. -7 hours from GMT.

  • Sig Wave height 9.8ft
  • Peak Period 9s
  • Wind
    25mph, 27mph gusts
  • Sea Temp 60°f
  • Air Temp 60°f
  • Sea Pressure 1010.4mb
  • South Santa Rosa Is. Ca
  • South Santa Rosa Is. Ca

More Historic Weather Station data

Upgrade to MSW Pro to gain access to the past 30 days of data for over 8000 Wavebouys and Weather Stations around the globe.

Join Pro

Comparision Forecast

View Surf forecast
   
sam. 07/23 8:50 10ft 9s  -  25 27 mph 1010.4mb 60f 60f
7:50 9.5ft 8s 7s 27 34 mph 1009.5mb 60f 60f
6:50 10ft 8s 7s 29 36 mph 1008.8mb 60f 60f
5:50 9ft 8s 6s 31 38 mph 1008.8mb 61f 60f
4:50 9ft 8s 6s 29 34 mph 1009mb 61f 60f
3:50 8.5ft 8s 7s 29 34 mph 1009.6mb 61f 60f
2:50 9.5ft 8s 7s 25 31 mph 1010.2mb 62f 60f
1:50 8.5ft 8s 6s 29 38 mph 1009.9mb 59f 60f
12:50 9.5ft 8s 6s 31 38 mph 1010.5mb 57f 60f
ven. 07/22 11:50 9.5ft 8s 6s 31 38 mph 1010.9mb 56f 60f
10:50 9ft 8s 6s 27 36 mph 1011.7mb 57f 60f
9:50 9ft 8s 6s 27 34 mph 1012.3mb 60f 61f
8:50 9ft 8s 6s 27 31 mph 1012.3mb 60f 61f
7:50 8ft 7s 6s 27 31 mph 1012.1mb 60f 61f
6:50 9ft 8s 6s 29 34 mph 1011.9mb 60f 61f
5:50 8ft 8s 6s 25 31 mph 1012.3mb 60f 62f
4:50 8ft 16s 6s 25 31 mph 1012.5mb 60f 61f
3:50 8ft 8s 6s 27 34 mph 1012.7mb 60f 60f
2:50 8ft 8s 6s 18 22 mph 1014mb 60f 60f
1:50 8ft 8s 6s 25 29 mph 1014.1mb 60f 60f
12:50 8ft 8s 6s 25 31 mph 1014.8mb 59f 60f
10:50 7.5ft 8s 6s 22 27 mph 1015.2mb 60f 60f
9:50 7ft 8s 6s 27 29 mph 1014.6mb 60f 60f
8:50 7.5ft 8s 6s 25 29 mph 1014.7mb 60f 60f
7:50 8ft 8s 6s 25 31 mph 1014mb 60f 60f
6:50 7ft 8s 6s 27 34 mph 1013.6mb 60f 60f
5:50 8ft 8s 6s 27 31 mph 1013mb 60f 60f
4:50 7ft 8s 6s 29 36 mph 1012.4mb 61f 60f
3:50 8ft 8s 6s 27 34 mph 1012.8mb 61f 60f
2:50 8ft 8s 6s 25 31 mph 1012.9mb 60f 60f
1:50 8ft 8s 6s 25 29 mph 1013.5mb 57f 60f
12:50 7.5ft 8s 6s 27 34 mph 1013.8mb 57f 60f
jeu. 07/21 11:50 7.5ft 7s 6s 27 31 mph 1014.3mb 58f 60f
10:50 7ft 7s 6s 29 36 mph 1014.4mb 60f 60f
9:50 7ft 7s 6s 29 36 mph 1014.4mb 61f 60f
8:50 8ft 8s 6s 31 38 mph 1013.9mb 62f 61f
7:50 7.5ft 8s 6s 29 38 mph 1013.7mb 62f 61f
6:50 7ft 8s 6s 25 29 mph 1014.4mb 63f 61f
5:50 6ft 7s 6s 25 27 mph 1014.7mb 63f 61f
4:50 6ft 8s 6s 27 31 mph 1014.8mb 63f 61f
3:50 6.5ft 15s 6s 25 31 mph 1015.1mb 63f 60f
2:50 6.5ft 7s 6s 22 27 mph 1015.8mb 63f 60f
1:50 6.5ft 8s 6s 25 29 mph 1016mb 62f 58f
12:50 7ft 7s 6s 22 25 mph 1016.5mb 63f 58f
11:50 6.5ft 7s 6s 22 27 mph 1016.3mb 62f 58f
10:50 7.5ft 7s 6s 20 25 mph 1016.1mb 62f 58f
9:50 7ft 8s 6s 22 29 mph 1015.3mb 62f 58f
8:50 7ft 8s 6s 25 27 mph 1015.2mb 62f 58f
7:50 7ft 7s 6s 25 31 mph 1014.6mb 62f 58f
6:50 7ft 7s 6s 25 27 mph 1014.4mb 62f 59f
5:50 7ft 7s 6s 25 31 mph 1013.9mb 62f 59f
4:50 7ft 7s 6s 27 31 mph 1013.6mb 62f 59f
3:50 7ft 7s 6s 25 29 mph 1013.8mb 63f 60f
2:50 6ft 7s 6s 27 31 mph 1013.7mb 63f 60f
1:50 6.5ft 6s 6s 27 29 mph 1013.9mb 62f 60f
12:50 6ft 7s 5s 25 31 mph 1014.5mb 59f 60f
mer. 07/20 11:50 6.5ft 7s 5s 25 29 mph 1014.4mb 59f 60f
10:50 6.5ft 6s 5s 25 31 mph 1014.5mb 60f 60f
9:50 6.5ft 16s 6s 27 29 mph 1014.5mb 61f 60f
8:50 6.5ft 7s 6s 25 31 mph 1014.1mb 61f 60f
7:50 6ft 7s 5s 25 29 mph 1014.4mb 62f 60f
6:50 6ft 6s 6s 25 31 mph 1014.4mb 62f 60f
5:50 6ft 16s 6s 25 29 mph 1014.5mb 62f 60f
4:50 6ft 7s 6s 25 29 mph 1014.8mb 62f 60f
3:50 6ft 16s 6s 22 27 mph 1015.1mb 62f 60f
2:50 6ft 8s 6s 20 25 mph 1015.5mb 62f 60f
1:50 6ft 7s 6s 20 25 mph 1015.6mb 62f 60f
12:50 6ft 7s 6s 22 27 mph 1015.5mb 62f 60f
11:50 6.5ft 7s 6s 22 25 mph 1015.9mb 62f 60f
10:50 7ft 6s 6s 22 27 mph 1016mb 62f 60f
9:50 6.5ft 7s 6s 22 27 mph 1015.8mb 62f 60f
8:50 6.5ft 7s 6s 25 27 mph 1015.4mb 62f 59f
7:50 7ft 7s 6s 22 27 mph 1015.3mb 62f 60f
6:50 7ft 7s 6s 25 29 mph 1015mb 62f 60f
5:50 7ft 7s 6s 22 27 mph 1014.9mb 62f 59f
4:50 7ft 8s 6s 25 29 mph 1014.5mb 62f 60f
3:50 7.5ft 7s 6s 25 29 mph 1014.7mb 61f 59f
2:50 7ft 7s 6s 25 29 mph 1014.8mb 61f 59f
1:50 7ft 7s 6s 27 34 mph 1014.8mb 62f 59f
12:50 7.5ft 7s 6s 27 31 mph 1015mb 61f 59f
mar. 07/19 11:50 7ft 6s 6s 27 34 mph 1015.1mb 59f 60f
10:50 7.5ft 7s 6s 27 34 mph 1015.1mb 60f 60f
9:50 7ft 7s 6s 29 36 mph 1014.8mb 61f 60f
8:50 7ft 7s 6s 29 38 mph 1014.3mb 62f 60f
7:50 7ft 6s 6s 29 36 mph 1014.4mb 62f 60f
6:50 7ft 7s 6s 27 31 mph 1014.6mb 62f 60f
5:50 6ft 7s 6s 27 31 mph 1015.1mb 63f 60f